MUC weather

Munich Airport
Munich, Bavaria, Germany

Public forecast

Using degrees Celsius for public forecast. Weather courtesy of forecast.io.

METAR (pilot weather report)

Retrieved 2017/07/23 04:20 UTC (0 seconds ago):

EDDM 230420Z 19008KT 9999 FEW040 SCT060 BKN120 16/15 Q1017 NOSIG

TAF (pilot weather forecast)

Forecast is more than 12 hours old.

Retrieved 2017/07/22 00:27 UTC (1 day ago):

TAF EDDM 222300Z 2300/2406 24004KT 9999 SCT045 PROB30 TEMPO 2301/2306 25015G30KT 4000 TSRA SCT025 BKN030CB BECMG 2307/2309 27010KT PROB30 TEMPO 2310/2314 25015G25KT TSRA SCT025 BKN030CB TEMPO 2314/2316 27015G25KT BECMG 2317/2319 25005KT BECMG 2322/2324 VRB03KT